EGPF Airport Information

Runway Information
Runway 05 Length 8720 ft width 151 ft
Elevation 26 ft Threshold 0 ft Heading 46
Runway 23 Length 8720 ft Width 151 ft
Elevation 21 ft Threshold 980 ft Heading 226
Runway 09 Length 3622 ft width 151 ft
Elevation 17 ft Threshold 203 ft Heading 91
Runway 27 Length 3622 ft Width 151 ft
Elevation 23 ft Threshold 0 ft Heading 271
Airport Frequencies
Type ACC Name SHANWICK O Frequency 120.35 MHZ
Type APP Name APP Frequency 119.1 MHZ
Type ATIS Name ATIS Frequency 129.575 MHZ
Type GND Name GND Frequency 121.7 MHZ
Type TWR Name TWR Frequency 118.8 MHZ
Airport Navaids
Type NDB Name Glasgow Frequency 331 KHZ
Type VOR-DME Name Glasgow Frequency 115400 KHZ
Airport Weather Information & NOTAM
ADDS - METARS form results

(2034 UTC 11 July 2020)
Data provider http://aviationweather.gov/metar/data/
 
METAR text: EGPF 112020Z AUTO 25005KT 9999 BKN041 12/08 Q1027
Conditions at: EGPF (GLASGOW AIRPORT , GB) observed 2020 UTC 11 July 2020
Temperature: 12.0°C (54°F)
Dewpoint: 8.0°C (46°F) [RH = 76%]
Pressure (altimeter): 30.32 inches Hg (1027.0 mb)
Winds: from the WSW (250 degrees) at 6 MPH (5 knots; 2.6 m/s)
Visibility: 6 or more miles (10+ km)
Ceiling: 4100 feet AGL
Clouds: broken clouds at 4100 feet AGL
Weather: no significant weather observed at this time

METAR text: EGPF 111950Z AUTO 26008KT 9999 BKN041 13/08 Q1027
Conditions at: EGPF (GLASGOW AIRPORT , GB) observed 1950 UTC 11 July 2020
Temperature: 13.0°C (55°F)
Dewpoint: 8.0°C (46°F) [RH = 72%]
Pressure (altimeter): 30.32 inches Hg (1027.0 mb)
Winds: from the W (260 degrees) at 9 MPH (8 knots; 4.1 m/s)
Visibility: 6 or more miles (10+ km)
Ceiling: 4100 feet AGL
Clouds: broken clouds at 4100 feet AGL
Weather: no significant weather observed at this time

Forecast for: EGPF (GLASGOW AIRPORT , GB)
Text: TAF EGPF 111653Z 1118/1218 27009KT 9999 SCT035
Forecast period: 1800 UTC 11 July 2020 to 1800 UTC 12 July 2020
Forecast type: FROM: standard forecast or significant change
Winds: from the W (270 degrees) at 10 MPH (9 knots; 4.6 m/s)
Visibility: 6 or more miles 10+ km)
Ceiling: at least 12,000 feet AGL
Clouds: scattered clouds at 3500 feet AGL
Weather: no significant weather forecast for this period
Text: PROB30 1200/1206 6000
Forecast period: 0000 to 0600 UTC 12 July 2020
Forecast type: PROBABLE: 30 percent likelihood of the following during this time
Visibility: 4 miles (6 km)
Ceiling: unknown
Clouds: missing
Weather: no significant weather forecast for this period